sensor_id;sensor_type;location;lat;lon;timestamp;temperature;humidity
12053;DHT22;6087;48.982;12.064;2022-08-03T00:01:54;22.60;98.10
12053;DHT22;6087;48.982;12.064;2022-08-03T00:04:21;22.60;97.90
12053;DHT22;6087;48.982;12.064;2022-08-03T00:06:48;22.60;98.20
12053;DHT22;6087;48.982;12.064;2022-08-03T00:09:15;22.50;98.40
12053;DHT22;6087;48.982;12.064;2022-08-03T00:11:43;22.60;98.70
12053;DHT22;6087;48.982;12.064;2022-08-03T00:14:10;22.50;98.90
12053;DHT22;6087;48.982;12.064;2022-08-03T00:16:37;22.50;98.90
12053;DHT22;6087;48.982;12.064;2022-08-03T00:19:04;22.50;99.20
12053;DHT22;6087;48.982;12.064;2022-08-03T00:21:31;22.50;99.40
12053;DHT22;6087;48.982;12.064;2022-08-03T00:23:58;22.50;99.60
12053;DHT22;6087;48.982;12.064;2022-08-03T00:26:25;22.40;99.40
12053;DHT22;6087;48.982;12.064;2022-08-03T00:28:54;22.40;99.90
12053;DHT22;6087;48.982;12.064;2022-08-03T00:31:20;22.40;99.90
12053;DHT22;6087;48.982;12.064;2022-08-03T00:33:47;22.40;99.90
12053;DHT22;6087;48.982;12.064;2022-08-03T00:36:14;22.40;99.90
12053;DHT22;6087;48.982;12.064;2022-08-03T00:38:41;22.40;99.90
12053;DHT22;6087;48.982;12.064;2022-08-03T00:41:08;22.40;99.90
12053;DHT22;6087;48.982;12.064;2022-08-03T00:43:35;22.30;99.90
12053;DHT22;6087;48.982;12.064;2022-08-03T00:46:04;22.30;99.90
12053;DHT22;6087;48.982;12.064;2022-08-03T00:48:30;22.30;99.90
12053;DHT22;6087;48.982;12.064;2022-08-03T00:50:58;22.30;99.90
12053;DHT22;6087;48.982;12.064;2022-08-03T00:53:25;22.30;99.90
12053;DHT22;6087;48.982;12.064;2022-08-03T00:55:52;22.30;99.90
12053;DHT22;6087;48.982;12.064;2022-08-03T00:58:19;22.20;99.90
12053;DHT22;6087;48.982;12.064;2022-08-03T01:00:47;22.20;99.90
12053;DHT22;6087;48.982;12.064;2022-08-03T01:03:15;22.20;99.90
12053;DHT22;6087;48.982;12.064;2022-08-03T01:05:51;22.20;99.90
12053;DHT22;6087;48.982;12.064;2022-08-03T01:08:22;22.20;99.90
12053;DHT22;6087;48.982;12.064;2022-08-03T01:10:56;22.10;99.90
12053;DHT22;6087;48.982;12.064;2022-08-03T01:13:30;22.10;99.90
12053;DHT22;6087;48.982;12.064;2022-08-03T01:16:02;22.10;99.90
12053;DHT22;6087;48.982;12.064;2022-08-03T01:18:37;22.10;99.90
12053;DHT22;6087;48.982;12.064;2022-08-03T01:21:09;22.10;99.90
12053;DHT22;6087;48.982;12.064;2022-08-03T01:23:52;22.00;99.90
12053;DHT22;6087;48.982;12.064;2022-08-03T01:26:41;22.00;99.90
12053;DHT22;6087;48.982;12.064;2022-08-03T01:29:36;22.00;99.90
12053;DHT22;6087;48.982;12.064;2022-08-03T01:32:11;22.00;99.90
12053;DHT22;6087;48.982;12.064;2022-08-03T01:34:44;22.00;99.90
12053;DHT22;6087;48.982;12.064;2022-08-03T01:37:14;22.00;99.90
12053;DHT22;6087;48.982;12.064;2022-08-03T01:39:42;21.90;99.90
12053;DHT22;6087;48.982;12.064;2022-08-03T01:42:10;21.90;99.90
12053;DHT22;6087;48.982;12.064;2022-08-03T01:44:43;21.90;99.90
12053;DHT22;6087;48.982;12.064;2022-08-03T01:47:11;21.80;99.90
12053;DHT22;6087;48.982;12.064;2022-08-03T01:49:42;21.90;99.90
12053;DHT22;6087;48.982;12.064;2022-08-03T01:52:11;21.80;99.90
12053;DHT22;6087;48.982;12.064;2022-08-03T01:54:42;21.80;99.90
12053;DHT22;6087;48.982;12.064;2022-08-03T01:57:10;21.80;99.90
12053;DHT22;6087;48.982;12.064;2022-08-03T01:59:38;21.80;99.90
12053;DHT22;6087;48.982;12.064;2022-08-03T02:02:08;21.70;99.90
12053;DHT22;6087;48.982;12.064;2022-08-03T02:04:37;21.70;99.90
12053;DHT22;6087;48.982;12.064;2022-08-03T02:07:07;21.70;99.90
12053;DHT22;6087;48.982;12.064;2022-08-03T02:09:37;21.60;99.90
12053;DHT22;6087;48.982;12.064;2022-08-03T02:12:07;21.60;99.90
12053;DHT22;6087;48.982;12.064;2022-08-03T02:14:34;21.60;99.90
12053;DHT22;6087;48.982;12.064;2022-08-03T02:17:02;21.60;99.90
12053;DHT22;6087;48.982;12.064;2022-08-03T02:19:32;21.50;99.90
12053;DHT22;6087;48.982;12.064;2022-08-03T02:22:00;21.50;99.90
12053;DHT22;6087;48.982;12.064;2022-08-03T02:24:28;21.50;99.90
12053;DHT22;6087;48.982;12.064;2022-08-03T02:26:56;21.50;99.90
12053;DHT22;6087;48.982;12.064;2022-08-03T02:29:26;21.50;99.90
12053;DHT22;6087;48.982;12.064;2022-08-03T02:31:56;21.40;99.90
12053;DHT22;6087;48.982;12.064;2022-08-03T02:34:27;21.50;99.90
12053;DHT22;6087;48.982;12.064;2022-08-03T02:36:57;21.50;99.90
12053;DHT22;6087;48.982;12.064;2022-08-03T02:39:27;21.40;99.90
12053;DHT22;6087;48.982;12.064;2022-08-03T02:41:56;21.40;99.90
12053;DHT22;6087;48.982;12.064;2022-08-03T02:44:29;21.40;99.90
12053;DHT22;6087;48.982;12.064;2022-08-03T02:47:02;21.30;99.90
12053;DHT22;6087;48.982;12.064;2022-08-03T02:49:30;21.30;99.90
12053;DHT22;6087;48.982;12.064;2022-08-03T02:52:00;21.30;99.90
12053;DHT22;6087;48.982;12.064;2022-08-03T02:54:29;21.30;99.90
12053;DHT22;6087;48.982;12.064;2022-08-03T02:56:58;21.30;99.90
12053;DHT22;6087;48.982;12.064;2022-08-03T02:59:27;21.30;99.90
12053;DHT22;6087;48.982;12.064;2022-08-03T03:01:56;21.20;99.90
12053;DHT22;6087;48.982;12.064;2022-08-03T03:04:25;21.20;99.90
12053;DHT22;6087;48.982;12.064;2022-08-03T03:06:53;21.20;99.90
12053;DHT22;6087;48.982;12.064;2022-08-03T03:09:21;21.20;99.90
12053;DHT22;6087;48.982;12.064;2022-08-03T03:11:50;21.20;99.90
12053;DHT22;6087;48.982;12.064;2022-08-03T03:14:17;21.20;99.90
12053;DHT22;6087;48.982;12.064;2022-08-03T03:16:46;21.10;99.90
12053;DHT22;6087;48.982;12.064;2022-08-03T03:19:14;21.10;99.90
12053;DHT22;6087;48.982;12.064;2022-08-03T03:21:44;21.10;99.90
12053;DHT22;6087;48.982;12.064;2022-08-03T03:24:11;21.10;99.90
12053;DHT22;6087;48.982;12.064;2022-08-03T03:26:42;21.10;99.90
12053;DHT22;6087;48.982;12.064;2022-08-03T03:29:09;21.00;99.90
12053;DHT22;6087;48.982;12.064;2022-08-03T03:31:36;21.10;99.90
12053;DHT22;6087;48.982;12.064;2022-08-03T03:34:03;21.00;99.90
12053;DHT22;6087;48.982;12.064;2022-08-03T03:36:30;21.00;99.90
12053;DHT22;6087;48.982;12.064;2022-08-03T03:38:57;20.90;99.90
12053;DHT22;6087;48.982;12.064;2022-08-03T03:41:24;20.90;99.90
12053;DHT22;6087;48.982;12.064;2022-08-03T03:43:53;20.90;99.90
12053;DHT22;6087;48.982;12.064;2022-08-03T03:46:20;20.90;99.90
12053;DHT22;6087;48.982;12.064;2022-08-03T03:48:47;20.90;99.90
12053;DHT22;6087;48.982;12.064;2022-08-03T03:51:14;20.90;99.90
12053;DHT22;6087;48.982;12.064;2022-08-03T03:53:53;20.90;99.90
12053;DHT22;6087;48.982;12.064;2022-08-03T03:56:20;20.80;99.90
12053;DHT22;6087;48.982;12.064;2022-08-03T03:58:47;20.80;99.90
12053;DHT22;6087;48.982;12.064;2022-08-03T04:01:16;20.80;99.90
12053;DHT22;6087;48.982;12.064;2022-08-03T04:03:43;20.80;99.90
12053;DHT22;6087;48.982;12.064;2022-08-03T04:06:11;20.80;99.90
12053;DHT22;6087;48.982;12.064;2022-08-03T04:09:11;20.70;99.90
12053;DHT22;6087;48.982;12.064;2022-08-03T04:11:57;20.70;99.90
12053;DHT22;6087;48.982;12.064;2022-08-03T04:14:28;20.70;99.90
12053;DHT22;6087;48.982;12.064;2022-08-03T04:17:01;20.70;99.90
12053;DHT22;6087;48.982;12.064;2022-08-03T04:19:34;20.70;99.90
12053;DHT22;6087;48.982;12.064;2022-08-03T04:22:05;20.70;99.90
12053;DHT22;6087;48.982;12.064;2022-08-03T04:24:36;20.70;99.90
12053;DHT22;6087;48.982;12.064;2022-08-03T04:27:06;20.70;99.90
12053;DHT22;6087;48.982;12.064;2022-08-03T04:29:36;20.60;99.90
12053;DHT22;6087;48.982;12.064;2022-08-03T04:32:07;20.70;99.90
12053;DHT22;6087;48.982;12.064;2022-08-03T04:34:34;20.70;99.90
12053;DHT22;6087;48.982;12.064;2022-08-03T04:37:04;20.70;99.90
12053;DHT22;6087;48.982;12.064;2022-08-03T04:39:32;20.60;99.90
12053;DHT22;6087;48.982;12.064;2022-08-03T04:42:03;20.70;99.90
12053;DHT22;6087;48.982;12.064;2022-08-03T04:44:35;20.70;99.90
12053;DHT22;6087;48.982;12.064;2022-08-03T04:47:03;20.70;99.90
12053;DHT22;6087;48.982;12.064;2022-08-03T04:49:31;20.70;99.90
12053;DHT22;6087;48.982;12.064;2022-08-03T04:51:58;20.70;99.90
12053;DHT22;6087;48.982;12.064;2022-08-03T04:54:25;20.70;99.90
12053;DHT22;6087;48.982;12.064;2022-08-03T04:56:52;20.70;99.90
12053;DHT22;6087;48.982;12.064;2022-08-03T04:59:19;20.70;99.90
12053;DHT22;6087;48.982;12.064;2022-08-03T05:01:46;20.80;99.90
12053;DHT22;6087;48.982;12.064;2022-08-03T05:04:13;20.80;99.90
12053;DHT22;6087;48.982;12.064;2022-08-03T05:06:41;20.80;99.90
12053;DHT22;6087;48.982;12.064;2022-08-03T05:09:08;20.80;99.90
12053;DHT22;6087;48.982;12.064;2022-08-03T05:11:36;20.80;99.90
12053;DHT22;6087;48.982;12.064;2022-08-03T05:14:03;20.90;99.90
12053;DHT22;6087;48.982;12.064;2022-08-03T05:16:30;20.90;99.90
12053;DHT22;6087;48.982;12.064;2022-08-03T05:18:57;20.90;99.90
12053;DHT22;6087;48.982;12.064;2022-08-03T05:21:24;20.90;99.90
12053;DHT22;6087;48.982;12.064;2022-08-03T05:23:52;21.00;99.90
12053;DHT22;6087;48.982;12.064;2022-08-03T05:26:19;21.00;99.90
12053;DHT22;6087;48.982;12.064;2022-08-03T05:28:46;21.00;99.90
12053;DHT22;6087;48.982;12.064;2022-08-03T05:31:13;21.00;99.90
12053;DHT22;6087;48.982;12.064;2022-08-03T05:33:40;21.10;99.90
12053;DHT22;6087;48.982;12.064;2022-08-03T05:36:09;21.10;99.90
12053;DHT22;6087;48.982;12.064;2022-08-03T05:38:37;21.10;99.90
12053;DHT22;6087;48.982;12.064;2022-08-03T05:41:05;21.20;99.90
12053;DHT22;6087;48.982;12.064;2022-08-03T05:43:32;21.20;99.90
12053;DHT22;6087;48.982;12.064;2022-08-03T05:45:59;21.20;99.90
12053;DHT22;6087;48.982;12.064;2022-08-03T05:48:26;21.30;99.90
12053;DHT22;6087;48.982;12.064;2022-08-03T05:50:53;21.30;99.90
12053;DHT22;6087;48.982;12.064;2022-08-03T05:53:20;21.30;99.90
12053;DHT22;6087;48.982;12.064;2022-08-03T05:55:47;21.40;99.90
12053;DHT22;6087;48.982;12.064;2022-08-03T05:58:15;21.40;99.90
12053;DHT22;6087;48.982;12.064;2022-08-03T06:00:42;21.40;99.90
12053;DHT22;6087;48.982;12.064;2022-08-03T06:03:09;21.50;99.90
12053;DHT22;6087;48.982;12.064;2022-08-03T06:05:36;21.50;99.90
12053;DHT22;6087;48.982;12.064;2022-08-03T06:08:03;21.60;99.90
12053;DHT22;6087;48.982;12.064;2022-08-03T06:10:30;21.60;99.90
12053;DHT22;6087;48.982;12.064;2022-08-03T06:12:57;21.60;99.90
12053;DHT22;6087;48.982;12.064;2022-08-03T06:15:26;21.70;99.90
12053;DHT22;6087;48.982;12.064;2022-08-03T06:17:53;21.70;99.90
12053;DHT22;6087;48.982;12.064;2022-08-03T06:20:21;21.80;99.90
12053;DHT22;6087;48.982;12.064;2022-08-03T06:22:49;21.80;99.90
12053;DHT22;6087;48.982;12.064;2022-08-03T06:25:16;21.80;99.90
12053;DHT22;6087;48.982;12.064;2022-08-03T06:27:43;21.90;99.90
12053;DHT22;6087;48.982;12.064;2022-08-03T06:30:11;21.90;99.90
12053;DHT22;6087;48.982;12.064;2022-08-03T06:32:40;22.00;99.90
12053;DHT22;6087;48.982;12.064;2022-08-03T06:35:08;22.00;99.90
12053;DHT22;6087;48.982;12.064;2022-08-03T06:37:41;22.10;99.90
12053;DHT22;6087;48.982;12.064;2022-08-03T06:40:10;22.10;99.90
12053;DHT22;6087;48.982;12.064;2022-08-03T06:42:37;22.20;99.90
12053;DHT22;6087;48.982;12.064;2022-08-03T06:45:05;22.20;99.90
12053;DHT22;6087;48.982;12.064;2022-08-03T06:47:33;22.20;99.90
12053;DHT22;6087;48.982;12.064;2022-08-03T06:50:02;22.30;99.90
12053;DHT22;6087;48.982;12.064;2022-08-03T06:52:28;22.30;99.90
12053;DHT22;6087;48.982;12.064;2022-08-03T06:54:56;22.30;99.90
12053;DHT22;6087;48.982;12.064;2022-08-03T06:57:23;22.40;99.90
12053;DHT22;6087;48.982;12.064;2022-08-03T06:59:50;22.40;99.90
12053;DHT22;6087;48.982;12.064;2022-08-03T07:02:17;22.50;99.90
12053;DHT22;6087;48.982;12.064;2022-08-03T07:04:44;22.50;99.90
12053;DHT22;6087;48.982;12.064;2022-08-03T07:07:12;22.50;99.90
12053;DHT22;6087;48.982;12.064;2022-08-03T07:09:39;22.60;99.90
12053;DHT22;6087;48.982;12.064;2022-08-03T07:12:06;22.60;99.90
12053;DHT22;6087;48.982;12.064;2022-08-03T07:14:33;22.70;99.90
12053;DHT22;6087;48.982;12.064;2022-08-03T07:17:00;22.80;99.90
12053;DHT22;6087;48.982;12.064;2022-08-03T07:19:27;22.80;99.90
12053;DHT22;6087;48.982;12.064;2022-08-03T07:21:54;22.90;99.90
12053;DHT22;6087;48.982;12.064;2022-08-03T07:24:22;22.90;99.90
12053;DHT22;6087;48.982;12.064;2022-08-03T07:26:49;22.90;99.90
12053;DHT22;6087;48.982;12.064;2022-08-03T07:29:16;22.90;99.90
12053;DHT22;6087;48.982;12.064;2022-08-03T07:31:43;23.00;99.90
12053;DHT22;6087;48.982;12.064;2022-08-03T07:34:10;23.00;99.90
12053;DHT22;6087;48.982;12.064;2022-08-03T07:36:37;23.10;99.90
12053;DHT22;6087;48.982;12.064;2022-08-03T07:39:04;23.10;99.90
12053;DHT22;6087;48.982;12.064;2022-08-03T07:41:33;23.10;99.90
12053;DHT22;6087;48.982;12.064;2022-08-03T07:44:00;23.20;99.90
12053;DHT22;6087;48.982;12.064;2022-08-03T07:46:27;23.20;99.90
12053;DHT22;6087;48.982;12.064;2022-08-03T07:48:54;23.30;99.90
12053;DHT22;6087;48.982;12.064;2022-08-03T07:51:21;23.30;99.90
12053;DHT22;6087;48.982;12.064;2022-08-03T07:53:48;23.40;99.90
12053;DHT22;6087;48.982;12.064;2022-08-03T07:56:15;23.50;99.90
12053;DHT22;6087;48.982;12.064;2022-08-03T07:58:43;23.50;99.90
12053;DHT22;6087;48.982;12.064;2022-08-03T08:01:10;23.50;99.90
12053;DHT22;6087;48.982;12.064;2022-08-03T08:03:37;23.60;99.90
12053;DHT22;6087;48.982;12.064;2022-08-03T08:06:04;23.60;99.90
12053;DHT22;6087;48.982;12.064;2022-08-03T08:08:31;23.70;99.90
12053;DHT22;6087;48.982;12.064;2022-08-03T08:10:58;23.80;99.90
12053;DHT22;6087;48.982;12.064;2022-08-03T08:13:25;23.80;99.90
12053;DHT22;6087;48.982;12.064;2022-08-03T08:15:53;23.90;99.90
12053;DHT22;6087;48.982;12.064;2022-08-03T08:18:20;23.90;99.90
12053;DHT22;6087;48.982;12.064;2022-08-03T08:20:48;24.00;99.90
12053;DHT22;6087;48.982;12.064;2022-08-03T08:23:16;24.00;99.90
12053;DHT22;6087;48.982;12.064;2022-08-03T08:25:47;24.00;99.90
12053;DHT22;6087;48.982;12.064;2022-08-03T08:28:16;24.00;99.90
12053;DHT22;6087;48.982;12.064;2022-08-03T08:30:43;24.10;99.90
12053;DHT22;6087;48.982;12.064;2022-08-03T08:33:12;24.10;99.90
12053;DHT22;6087;48.982;12.064;2022-08-03T08:35:39;24.20;99.90
12053;DHT22;6087;48.982;12.064;2022-08-03T08:38:06;24.20;99.90
12053;DHT22;6087;48.982;12.064;2022-08-03T08:40:33;24.20;99.90
12053;DHT22;6087;48.982;12.064;2022-08-03T08:43:01;24.20;99.90
12053;DHT22;6087;48.982;12.064;2022-08-03T08:45:28;24.40;99.90
12053;DHT22;6087;48.982;12.064;2022-08-03T08:47:56;24.40;99.90
12053;DHT22;6087;48.982;12.064;2022-08-03T08:50:25;24.40;99.90
12053;DHT22;6087;48.982;12.064;2022-08-03T08:52:53;24.50;99.90
12053;DHT22;6087;48.982;12.064;2022-08-03T08:55:22;24.50;99.90
12053;DHT22;6087;48.982;12.064;2022-08-03T08:57:51;24.50;99.90
12053;DHT22;6087;48.982;12.064;2022-08-03T09:00:19;24.60;99.90
12053;DHT22;6087;48.982;12.064;2022-08-03T09:02:46;24.60;99.90
12053;DHT22;6087;48.982;12.064;2022-08-03T09:05:14;24.60;99.90
12053;DHT22;6087;48.982;12.064;2022-08-03T09:07:44;24.80;99.90
12053;DHT22;6087;48.982;12.064;2022-08-03T09:10:13;24.80;99.90
12053;DHT22;6087;48.982;12.064;2022-08-03T09:12:42;24.90;99.90
12053;DHT22;6087;48.982;12.064;2022-08-03T09:15:17;24.90;99.90
12053;DHT22;6087;48.982;12.064;2022-08-03T09:17:44;24.90;99.90
12053;DHT22;6087;48.982;12.064;2022-08-03T09:20:12;24.90;99.90
12053;DHT22;6087;48.982;12.064;2022-08-03T09:22:52;24.90;99.70
12053;DHT22;6087;48.982;12.064;2022-08-03T09:25:27;24.90;99.70
12053;DHT22;6087;48.982;12.064;2022-08-03T09:27:54;24.90;99.30
12053;DHT22;6087;48.982;12.064;2022-08-03T09:30:21;24.90;99.00
12053;DHT22;6087;48.982;12.064;2022-08-03T09:32:48;24.90;97.70
12053;DHT22;6087;48.982;12.064;2022-08-03T09:35:15;25.00;98.60
12053;DHT22;6087;48.982;12.064;2022-08-03T09:37:42;25.00;98.60
12053;DHT22;6087;48.982;12.064;2022-08-03T09:40:10;25.00;98.60
12053;DHT22;6087;48.982;12.064;2022-08-03T09:42:57;25.10;97.90
12053;DHT22;6087;48.982;12.064;2022-08-03T09:45:27;25.10;98.00
12053;DHT22;6087;48.982;12.064;2022-08-03T09:47:54;25.20;97.80
12053;DHT22;6087;48.982;12.064;2022-08-03T09:50:22;25.20;97.60
12053;DHT22;6087;48.982;12.064;2022-08-03T09:52:50;25.20;96.60
12053;DHT22;6087;48.982;12.064;2022-08-03T09:55:18;25.30;97.20
12053;DHT22;6087;48.982;12.064;2022-08-03T09:57:47;25.30;97.40
12053;DHT22;6087;48.982;12.064;2022-08-03T10:00:15;25.30;97.30
12053;DHT22;6087;48.982;12.064;2022-08-03T10:02:47;25.30;97.20
12053;DHT22;6087;48.982;12.064;2022-08-03T10:05:32;25.20;96.80
12053;DHT22;6087;48.982;12.064;2022-08-03T10:08:14;25.30;96.40
12053;DHT22;6087;48.982;12.064;2022-08-03T10:10:50;25.30;96.50
12053;DHT22;6087;48.982;12.064;2022-08-03T10:13:19;25.30;96.10
12053;DHT22;6087;48.982;12.064;2022-08-03T10:15:47;25.30;95.60
12053;DHT22;6087;48.982;12.064;2022-08-03T10:18:14;25.30;95.80
12053;DHT22;6087;48.982;12.064;2022-08-03T10:20:44;25.30;95.00
12053;DHT22;6087;48.982;12.064;2022-08-03T10:23:13;25.40;95.40
12053;DHT22;6087;48.982;12.064;2022-08-03T10:25:48;25.40;95.10
12053;DHT22;6087;48.982;12.064;2022-08-03T10:28:18;25.60;94.90
12053;DHT22;6087;48.982;12.064;2022-08-03T10:30:47;25.60;94.30
12053;DHT22;6087;48.982;12.064;2022-08-03T10:33:18;25.70;94.20
12053;DHT22;6087;48.982;12.064;2022-08-03T10:35:46;25.80;94.20
12053;DHT22;6087;48.982;12.064;2022-08-03T10:38:18;25.90;94.20
12053;DHT22;6087;48.982;12.064;2022-08-03T10:40:46;25.90;94.40
12053;DHT22;6087;48.982;12.064;2022-08-03T10:43:18;25.90;94.60
12053;DHT22;6087;48.982;12.064;2022-08-03T10:45:47;26.00;94.60
12053;DHT22;6087;48.982;12.064;2022-08-03T10:48:16;26.10;94.20
12053;DHT22;6087;48.982;12.064;2022-08-03T10:50:43;26.20;93.60
12053;DHT22;6087;48.982;12.064;2022-08-03T10:53:10;26.20;93.50
12053;DHT22;6087;48.982;12.064;2022-08-03T10:55:39;26.30;93.80
12053;DHT22;6087;48.982;12.064;2022-08-03T10:58:50;26.40;93.90
12053;DHT22;6087;48.982;12.064;2022-08-03T11:01:18;26.50;93.00
12053;DHT22;6087;48.982;12.064;2022-08-03T11:04:13;26.50;93.10
12053;DHT22;6087;48.982;12.064;2022-08-03T11:06:40;26.50;92.90
12053;DHT22;6087;48.982;12.064;2022-08-03T11:09:15;26.50;92.60
12053;DHT22;6087;48.982;12.064;2022-08-03T11:11:43;26.60;92.20
12053;DHT22;6087;48.982;12.064;2022-08-03T11:14:13;26.70;92.30
12053;DHT22;6087;48.982;12.064;2022-08-03T11:16:42;26.80;92.10
12053;DHT22;6087;48.982;12.064;2022-08-03T11:19:13;26.90;91.60
12053;DHT22;6087;48.982;12.064;2022-08-03T11:21:54;27.00;91.10
12053;DHT22;6087;48.982;12.064;2022-08-03T11:25:00;27.10;89.40
12053;DHT22;6087;48.982;12.064;2022-08-03T11:27:30;27.20;86.30
12053;DHT22;6087;48.982;12.064;2022-08-03T11:30:03;27.30;87.00
12053;DHT22;6087;48.982;12.064;2022-08-03T11:32:52;27.30;87.10
12053;DHT22;6087;48.982;12.064;2022-08-03T11:35:22;27.40;85.10
12053;DHT22;6087;48.982;12.064;2022-08-03T11:38:08;27.50;86.80
12053;DHT22;6087;48.982;12.064;2022-08-03T11:40:38;27.50;85.70
12053;DHT22;6087;48.982;12.064;2022-08-03T11:43:07;27.70;85.80
12053;DHT22;6087;48.982;12.064;2022-08-03T11:45:36;27.80;85.70
12053;DHT22;6087;48.982;12.064;2022-08-03T11:48:13;27.80;85.70
12053;DHT22;6087;48.982;12.064;2022-08-03T11:50:41;27.70;84.80
12053;DHT22;6087;48.982;12.064;2022-08-03T11:53:13;27.90;83.60
12053;DHT22;6087;48.982;12.064;2022-08-03T11:55:42;28.10;81.00
12053;DHT22;6087;48.982;12.064;2022-08-03T11:58:17;28.20;78.00
12053;DHT22;6087;48.982;12.064;2022-08-03T12:00:46;28.40;75.40
12053;DHT22;6087;48.982;12.064;2022-08-03T12:03:14;28.60;74.50
12053;DHT22;6087;48.982;12.064;2022-08-03T12:05:47;28.80;71.90
12053;DHT22;6087;48.982;12.064;2022-08-03T12:08:15;28.90;73.60
12053;DHT22;6087;48.982;12.064;2022-08-03T12:10:48;29.00;72.20
12053;DHT22;6087;48.982;12.064;2022-08-03T12:13:16;29.10;70.90
12053;DHT22;6087;48.982;12.064;2022-08-03T12:15:51;29.10;71.30
12053;DHT22;6087;48.982;12.064;2022-08-03T12:18:19;29.10;69.70
12053;DHT22;6087;48.982;12.064;2022-08-03T12:20:47;29.10;68.20
12053;DHT22;6087;48.982;12.064;2022-08-03T12:23:15;29.10;66.20
12053;DHT22;6087;48.982;12.064;2022-08-03T12:25:43;29.10;66.30
12053;DHT22;6087;48.982;12.064;2022-08-03T12:28:14;29.20;63.50
12053;DHT22;6087;48.982;12.064;2022-08-03T12:30:45;29.40;63.50
12053;DHT22;6087;48.982;12.064;2022-08-03T12:33:19;29.50;64.20
12053;DHT22;6087;48.982;12.064;2022-08-03T12:35:48;29.40;63.50
12053;DHT22;6087;48.982;12.064;2022-08-03T12:38:20;29.40;63.60
12053;DHT22;6087;48.982;12.064;2022-08-03T12:40:58;29.30;64.30
12053;DHT22;6087;48.982;12.064;2022-08-03T12:43:25;29.40;61.00
12053;DHT22;6087;48.982;12.064;2022-08-03T12:46:06;29.60;59.10
12053;DHT22;6087;48.982;12.064;2022-08-03T12:48:35;29.80;59.50
12053;DHT22;6087;48.982;12.064;2022-08-03T12:51:09;29.90;57.10
12053;DHT22;6087;48.982;12.064;2022-08-03T12:53:36;29.90;57.40
12053;DHT22;6087;48.982;12.064;2022-08-03T12:56:04;29.80;57.60
12053;DHT22;6087;48.982;12.064;2022-08-03T12:58:32;29.90;58.70
12053;DHT22;6087;48.982;12.064;2022-08-03T13:01:00;30.00;53.30
12053;DHT22;6087;48.982;12.064;2022-08-03T13:03:27;30.10;53.40
12053;DHT22;6087;48.982;12.064;2022-08-03T13:05:55;30.20;50.90
12053;DHT22;6087;48.982;12.064;2022-08-03T13:08:24;30.30;50.30
12053;DHT22;6087;48.982;12.064;2022-08-03T13:10:51;30.40;48.00
12053;DHT22;6087;48.982;12.064;2022-08-03T13:13:19;30.40;48.70
12053;DHT22;6087;48.982;12.064;2022-08-03T13:16:03;30.50;50.00
12053;DHT22;6087;48.982;12.064;2022-08-03T13:18:30;30.50;50.30
12053;DHT22;6087;48.982;12.064;2022-08-03T13:20:58;30.50;48.70
12053;DHT22;6087;48.982;12.064;2022-08-03T13:23:25;30.60;47.90
12053;DHT22;6087;48.982;12.064;2022-08-03T13:25:53;30.70;45.60
12053;DHT22;6087;48.982;12.064;2022-08-03T13:28:19;30.60;47.60
12053;DHT22;6087;48.982;12.064;2022-08-03T13:30:46;30.60;47.70
12053;DHT22;6087;48.982;12.064;2022-08-03T13:33:13;30.60;46.10
12053;DHT22;6087;48.982;12.064;2022-08-03T13:35:40;30.70;46.70
12053;DHT22;6087;48.982;12.064;2022-08-03T13:38:08;30.70;44.20
12053;DHT22;6087;48.982;12.064;2022-08-03T13:40:35;30.70;46.70
12053;DHT22;6087;48.982;12.064;2022-08-03T13:43:02;30.60;47.40
12053;DHT22;6087;48.982;12.064;2022-08-03T13:45:29;30.60;46.50
12053;DHT22;6087;48.982;12.064;2022-08-03T13:47:56;30.60;46.70
12053;DHT22;6087;48.982;12.064;2022-08-03T13:50:23;30.60;44.10
12053;DHT22;6087;48.982;12.064;2022-08-03T13:52:50;30.70;43.50
12053;DHT22;6087;48.982;12.064;2022-08-03T13:55:18;30.70;42.40
12053;DHT22;6087;48.982;12.064;2022-08-03T13:57:45;30.70;43.00
12053;DHT22;6087;48.982;12.064;2022-08-03T14:00:13;30.70;42.60
12053;DHT22;6087;48.982;12.064;2022-08-03T14:02:40;30.70;41.10
12053;DHT22;6087;48.982;12.064;2022-08-03T14:05:07;30.70;40.60
12053;DHT22;6087;48.982;12.064;2022-08-03T14:07:34;30.70;40.10
12053;DHT22;6087;48.982;12.064;2022-08-03T14:10:01;30.70;39.40
12053;DHT22;6087;48.982;12.064;2022-08-03T14:12:29;30.70;39.60
12053;DHT22;6087;48.982;12.064;2022-08-03T14:14:56;30.70;39.60
12053;DHT22;6087;48.982;12.064;2022-08-03T14:17:23;30.70;39.70
12053;DHT22;6087;48.982;12.064;2022-08-03T14:19:50;30.70;38.30
12053;DHT22;6087;48.982;12.064;2022-08-03T14:22:17;30.70;39.40
12053;DHT22;6087;48.982;12.064;2022-08-03T14:24:44;30.60;38.80
12053;DHT22;6087;48.982;12.064;2022-08-03T14:27:11;30.60;39.20
12053;DHT22;6087;48.982;12.064;2022-08-03T14:29:39;30.60;39.90
12053;DHT22;6087;48.982;12.064;2022-08-03T14:32:06;30.70;39.60
12053;DHT22;6087;48.982;12.064;2022-08-03T14:34:33;30.70;38.50
12053;DHT22;6087;48.982;12.064;2022-08-03T14:37:00;30.70;38.90
12053;DHT22;6087;48.982;12.064;2022-08-03T14:39:27;30.70;37.80
12053;DHT22;6087;48.982;12.064;2022-08-03T14:41:53;30.70;38.40
12053;DHT22;6087;48.982;12.064;2022-08-03T14:44:20;30.70;37.00
12053;DHT22;6087;48.982;12.064;2022-08-03T14:46:48;30.70;37.80
12053;DHT22;6087;48.982;12.064;2022-08-03T14:49:15;30.70;37.80
12053;DHT22;6087;48.982;12.064;2022-08-03T14:51:42;30.60;36.10
12053;DHT22;6087;48.982;12.064;2022-08-03T14:54:09;30.60;37.30
12053;DHT22;6087;48.982;12.064;2022-08-03T14:56:36;30.60;36.60
12053;DHT22;6087;48.982;12.064;2022-08-03T14:59:03;30.60;36.20
12053;DHT22;6087;48.982;12.064;2022-08-03T15:01:30;30.60;36.60
12053;DHT22;6087;48.982;12.064;2022-08-03T15:03:58;30.60;36.20
12053;DHT22;6087;48.982;12.064;2022-08-03T15:06:25;30.60;36.70
12053;DHT22;6087;48.982;12.064;2022-08-03T15:08:52;30.60;37.40
12053;DHT22;6087;48.982;12.064;2022-08-03T15:11:19;30.50;34.50
12053;DHT22;6087;48.982;12.064;2022-08-03T15:13:46;30.50;34.90
12053;DHT22;6087;48.982;12.064;2022-08-03T15:16:13;30.50;35.20
12053;DHT22;6087;48.982;12.064;2022-08-03T15:18:40;30.50;35.20
12053;DHT22;6087;48.982;12.064;2022-08-03T15:21:08;30.50;34.80
12053;DHT22;6087;48.982;12.064;2022-08-03T15:23:35;30.40;34.70
12053;DHT22;6087;48.982;12.064;2022-08-03T15:26:02;30.40;35.50
12053;DHT22;6087;48.982;12.064;2022-08-03T15:28:29;30.40;34.60
12053;DHT22;6087;48.982;12.064;2022-08-03T15:30:56;30.40;35.50
12053;DHT22;6087;48.982;12.064;2022-08-03T15:33:23;30.30;35.00
12053;DHT22;6087;48.982;12.064;2022-08-03T15:35:50;30.30;36.60
12053;DHT22;6087;48.982;12.064;2022-08-03T15:38:19;30.30;35.00
12053;DHT22;6087;48.982;12.064;2022-08-03T15:40:47;30.30;35.60
12053;DHT22;6087;48.982;12.064;2022-08-03T15:43:14;30.20;35.20